sensor_id;sensor_type;location;lat;lon;timestamp;P1;durP1;ratioP1;P2;durP2;ratioP2
21243;SDS011;10780;50.942;4.028;2023-06-10T00:00:34;11.43;;;10.18;;
21243;SDS011;10780;50.942;4.028;2023-06-10T00:03:00;11.45;;;10.25;;
21243;SDS011;10780;50.942;4.028;2023-06-10T00:05:26;11.32;;;10.25;;
21243;SDS011;10780;50.942;4.028;2023-06-10T00:07:55;11.88;;;10.73;;
21243;SDS011;10780;50.942;4.028;2023-06-10T00:10:21;11.55;;;10.55;;
21243;SDS011;10780;50.942;4.028;2023-06-10T00:12:47;11.52;;;10.38;;
21243;SDS011;10780;50.942;4.028;2023-06-10T00:15:13;11.73;;;10.52;;
21243;SDS011;10780;50.942;4.028;2023-06-10T00:17:38;11.75;;;10.63;;
21243;SDS011;10780;50.942;4.028;2023-06-10T00:20:06;13.32;;;10.70;;
21243;SDS011;10780;50.942;4.028;2023-06-10T00:22:34;10.75;;;9.65;;
21243;SDS011;10780;50.942;4.028;2023-06-10T00:24:59;12.40;;;10.95;;
21243;SDS011;10780;50.942;4.028;2023-06-10T00:27:25;11.50;;;10.40;;
21243;SDS011;10780;50.942;4.028;2023-06-10T00:29:56;11.50;;;10.50;;
21243;SDS011;10780;50.942;4.028;2023-06-10T00:32:22;12.20;;;10.90;;
21243;SDS011;10780;50.942;4.028;2023-06-10T00:34:48;11.70;;;10.45;;
21243;SDS011;10780;50.942;4.028;2023-06-10T00:37:13;12.63;;;11.43;;
21243;SDS011;10780;50.942;4.028;2023-06-10T00:39:39;11.82;;;10.63;;
21243;SDS011;10780;50.942;4.028;2023-06-10T00:42:04;12.00;;;10.70;;
21243;SDS011;10780;50.942;4.028;2023-06-10T00:44:32;11.63;;;10.43;;
21243;SDS011;10780;50.942;4.028;2023-06-10T00:46:57;12.02;;;10.80;;
21243;SDS011;10780;50.942;4.028;2023-06-10T00:49:23;12.48;;;11.27;;
21243;SDS011;10780;50.942;4.028;2023-06-10T00:51:50;11.98;;;10.68;;
21243;SDS011;10780;50.942;4.028;2023-06-10T00:54:17;11.82;;;10.63;;
21243;SDS011;10780;50.942;4.028;2023-06-10T00:56:43;11.85;;;10.73;;
21243;SDS011;10780;50.942;4.028;2023-06-10T00:59:08;11.95;;;10.75;;
21243;SDS011;10780;50.942;4.028;2023-06-10T01:01:34;11.98;;;10.75;;
21243;SDS011;10780;50.942;4.028;2023-06-10T01:04:02;13.40;;;11.07;;
21243;SDS011;10780;50.942;4.028;2023-06-10T01:06:36;12.23;;;11.13;;
21243;SDS011;10780;50.942;4.028;2023-06-10T01:09:21;11.45;;;10.25;;
21243;SDS011;10780;50.942;4.028;2023-06-10T01:12:01;13.30;;;11.18;;
21243;SDS011;10780;50.942;4.028;2023-06-10T01:14:38;12.30;;;11.00;;
21243;SDS011;10780;50.942;4.028;2023-06-10T01:17:09;15.00;;;11.38;;
21243;SDS011;10780;50.942;4.028;2023-06-10T01:19:36;12.48;;;11.25;;
21243;SDS011;10780;50.942;4.028;2023-06-10T01:22:02;12.00;;;10.90;;
21243;SDS011;10780;50.942;4.028;2023-06-10T01:24:28;12.68;;;11.45;;
21243;SDS011;10780;50.942;4.028;2023-06-10T01:27:00;12.88;;;11.13;;
21243;SDS011;10780;50.942;4.028;2023-06-10T01:29:41;12.35;;;11.15;;
21243;SDS011;10780;50.942;4.028;2023-06-10T01:34:43;12.05;;;10.82;;
21243;SDS011;10780;50.942;4.028;2023-06-10T01:37:10;12.65;;;11.40;;
21243;SDS011;10780;50.942;4.028;2023-06-10T01:39:38;13.35;;;11.23;;
21243;SDS011;10780;50.942;4.028;2023-06-10T01:42:05;12.40;;;11.10;;
21243;SDS011;10780;50.942;4.028;2023-06-10T01:44:31;12.98;;;11.02;;
21243;SDS011;10780;50.942;4.028;2023-06-10T01:46:58;12.23;;;11.10;;
21243;SDS011;10780;50.942;4.028;2023-06-10T01:49:24;15.25;;;11.70;;
21243;SDS011;10780;50.942;4.028;2023-06-10T01:51:51;12.43;;;11.32;;
21243;SDS011;10780;50.942;4.028;2023-06-10T01:54:16;11.90;;;10.68;;
21243;SDS011;10780;50.942;4.028;2023-06-10T01:56:42;12.40;;;11.20;;
21243;SDS011;10780;50.942;4.028;2023-06-10T01:59:08;13.05;;;11.75;;
21243;SDS011;10780;50.942;4.028;2023-06-10T02:01:33;12.10;;;10.85;;
21243;SDS011;10780;50.942;4.028;2023-06-10T02:03:59;12.27;;;10.93;;
21243;SDS011;10780;50.942;4.028;2023-06-10T02:06:25;14.55;;;11.88;;
21243;SDS011;10780;50.942;4.028;2023-06-10T02:08:50;14.43;;;12.00;;
21243;SDS011;10780;50.942;4.028;2023-06-10T02:11:16;13.05;;;11.45;;
21243;SDS011;10780;50.942;4.028;2023-06-10T02:13:41;12.60;;;11.35;;
21243;SDS011;10780;50.942;4.028;2023-06-10T02:16:07;12.65;;;11.43;;
21243;SDS011;10780;50.942;4.028;2023-06-10T02:18:34;12.50;;;11.40;;
21243;SDS011;10780;50.942;4.028;2023-06-10T02:20:59;13.23;;;11.93;;
21243;SDS011;10780;50.942;4.028;2023-06-10T02:23:25;12.50;;;11.40;;
21243;SDS011;10780;50.942;4.028;2023-06-10T02:25:51;12.52;;;11.40;;
21243;SDS011;10780;50.942;4.028;2023-06-10T02:28:16;13.38;;;11.98;;
21243;SDS011;10780;50.942;4.028;2023-06-10T02:30:42;13.63;;;11.63;;
21243;SDS011;10780;50.942;4.028;2023-06-10T02:33:08;13.35;;;11.50;;
21243;SDS011;10780;50.942;4.028;2023-06-10T02:35:38;13.02;;;11.68;;
21243;SDS011;10780;50.942;4.028;2023-06-10T02:38:04;12.82;;;11.52;;
21243;SDS011;10780;50.942;4.028;2023-06-10T02:40:30;15.30;;;12.82;;
21243;SDS011;10780;50.942;4.028;2023-06-10T02:42:56;13.32;;;12.02;;
21243;SDS011;10780;50.942;4.028;2023-06-10T02:45:22;13.55;;;12.15;;
21243;SDS011;10780;50.942;4.028;2023-06-10T02:47:48;13.23;;;12.02;;
21243;SDS011;10780;50.942;4.028;2023-06-10T02:50:13;13.13;;;11.75;;
21243;SDS011;10780;50.942;4.028;2023-06-10T02:52:39;12.68;;;11.48;;
21243;SDS011;10780;50.942;4.028;2023-06-10T02:55:05;14.75;;;12.07;;
21243;SDS011;10780;50.942;4.028;2023-06-10T02:57:31;13.52;;;12.30;;
21243;SDS011;10780;50.942;4.028;2023-06-10T02:59:57;14.10;;;12.73;;
21243;SDS011;10780;50.942;4.028;2023-06-10T03:02:23;14.07;;;12.60;;
21243;SDS011;10780;50.942;4.028;2023-06-10T03:04:53;13.55;;;12.25;;
21243;SDS011;10780;50.942;4.028;2023-06-10T03:07:22;14.07;;;12.70;;
21243;SDS011;10780;50.942;4.028;2023-06-10T03:09:48;14.05;;;12.70;;
21243;SDS011;10780;50.942;4.028;2023-06-10T03:12:14;14.15;;;12.80;;
21243;SDS011;10780;50.942;4.028;2023-06-10T03:14:40;14.35;;;12.88;;
21243;SDS011;10780;50.942;4.028;2023-06-10T03:17:06;14.10;;;12.73;;
21243;SDS011;10780;50.942;4.028;2023-06-10T03:19:33;14.98;;;13.38;;
21243;SDS011;10780;50.942;4.028;2023-06-10T03:22:09;14.85;;;13.43;;
21243;SDS011;10780;50.942;4.028;2023-06-10T03:24:36;14.48;;;13.07;;
21243;SDS011;10780;50.942;4.028;2023-06-10T03:27:05;14.75;;;13.13;;
21243;SDS011;10780;50.942;4.028;2023-06-10T03:29:32;14.38;;;12.88;;
21243;SDS011;10780;50.942;4.028;2023-06-10T03:31:58;15.02;;;13.52;;
21243;SDS011;10780;50.942;4.028;2023-06-10T03:34:23;14.20;;;12.70;;
21243;SDS011;10780;50.942;4.028;2023-06-10T03:36:49;14.13;;;12.73;;
21243;SDS011;10780;50.942;4.028;2023-06-10T03:39:15;15.05;;;13.55;;
21243;SDS011;10780;50.942;4.028;2023-06-10T03:41:41;15.32;;;13.75;;
21243;SDS011;10780;50.942;4.028;2023-06-10T03:44:06;14.20;;;12.70;;
21243;SDS011;10780;50.942;4.028;2023-06-10T03:46:32;14.95;;;13.55;;
21243;SDS011;10780;50.942;4.028;2023-06-10T03:48:58;14.57;;;13.18;;
21243;SDS011;10780;50.942;4.028;2023-06-10T03:51:25;13.90;;;12.50;;
21243;SDS011;10780;50.942;4.028;2023-06-10T03:53:51;15.48;;;13.88;;
21243;SDS011;10780;50.942;4.028;2023-06-10T03:56:17;14.98;;;13.45;;
21243;SDS011;10780;50.942;4.028;2023-06-10T03:58:43;14.98;;;13.55;;
21243;SDS011;10780;50.942;4.028;2023-06-10T04:01:08;19.05;;;13.82;;
21243;SDS011;10780;50.942;4.028;2023-06-10T04:03:35;14.68;;;13.18;;
21243;SDS011;10780;50.942;4.028;2023-06-10T04:06:01;14.73;;;13.20;;
21243;SDS011;10780;50.942;4.028;2023-06-10T04:08:27;16.77;;;13.55;;
21243;SDS011;10780;50.942;4.028;2023-06-10T04:10:53;14.90;;;13.60;;
21243;SDS011;10780;50.942;4.028;2023-06-10T04:13:18;15.70;;;13.93;;
21243;SDS011;10780;50.942;4.028;2023-06-10T04:15:44;14.80;;;13.38;;
21243;SDS011;10780;50.942;4.028;2023-06-10T04:18:10;15.70;;;14.13;;
21243;SDS011;10780;50.942;4.028;2023-06-10T04:20:36;14.30;;;12.90;;
21243;SDS011;10780;50.942;4.028;2023-06-10T04:23:01;16.33;;;13.57;;
21243;SDS011;10780;50.942;4.028;2023-06-10T04:25:27;14.77;;;13.38;;
21243;SDS011;10780;50.942;4.028;2023-06-10T04:27:53;15.65;;;14.05;;
21243;SDS011;10780;50.942;4.028;2023-06-10T04:30:19;15.02;;;13.45;;
21243;SDS011;10780;50.942;4.028;2023-06-10T04:32:45;15.60;;;13.95;;
21243;SDS011;10780;50.942;4.028;2023-06-10T04:35:12;15.77;;;14.13;;
21243;SDS011;10780;50.942;4.028;2023-06-10T04:37:39;15.38;;;13.70;;
21243;SDS011;10780;50.942;4.028;2023-06-10T04:40:06;15.25;;;13.55;;
21243;SDS011;10780;50.942;4.028;2023-06-10T04:42:33;17.50;;;13.95;;
21243;SDS011;10780;50.942;4.028;2023-06-10T04:44:59;15.30;;;13.57;;
21243;SDS011;10780;50.942;4.028;2023-06-10T04:47:25;16.40;;;14.75;;
21243;SDS011;10780;50.942;4.028;2023-06-10T04:49:51;14.73;;;13.20;;
21243;SDS011;10780;50.942;4.028;2023-06-10T04:52:17;15.32;;;13.82;;
21243;SDS011;10780;50.942;4.028;2023-06-10T04:54:43;15.73;;;14.13;;
21243;SDS011;10780;50.942;4.028;2023-06-10T04:57:09;16.90;;;14.57;;
21243;SDS011;10780;50.942;4.028;2023-06-10T04:59:36;14.82;;;13.48;;
21243;SDS011;10780;50.942;4.028;2023-06-10T05:02:03;15.30;;;13.80;;
21243;SDS011;10780;50.942;4.028;2023-06-10T05:04:29;15.68;;;14.15;;
21243;SDS011;10780;50.942;4.028;2023-06-10T05:06:55;15.50;;;13.80;;
21243;SDS011;10780;50.942;4.028;2023-06-10T05:09:21;16.08;;;14.50;;
21243;SDS011;10780;50.942;4.028;2023-06-10T05:11:47;15.13;;;13.40;;
21243;SDS011;10780;50.942;4.028;2023-06-10T05:14:12;16.40;;;14.70;;
21243;SDS011;10780;50.942;4.028;2023-06-10T05:16:39;15.57;;;13.35;;
21243;SDS011;10780;50.942;4.028;2023-06-10T05:19:05;14.80;;;13.40;;
21243;SDS011;10780;50.942;4.028;2023-06-10T05:21:30;15.85;;;14.15;;
21243;SDS011;10780;50.942;4.028;2023-06-10T05:23:56;17.38;;;14.05;;
21243;SDS011;10780;50.942;4.028;2023-06-10T05:26:21;16.25;;;14.50;;
21243;SDS011;10780;50.942;4.028;2023-06-10T05:28:47;15.68;;;13.68;;
21243;SDS011;10780;50.942;4.028;2023-06-10T05:31:13;15.27;;;13.85;;
21243;SDS011;10780;50.942;4.028;2023-06-10T05:33:39;16.98;;;15.13;;
21243;SDS011;10780;50.942;4.028;2023-06-10T05:36:05;16.25;;;14.15;;
21243;SDS011;10780;50.942;4.028;2023-06-10T05:38:31;15.63;;;14.02;;
21243;SDS011;10780;50.942;4.028;2023-06-10T05:40:56;14.68;;;13.18;;
21243;SDS011;10780;50.942;4.028;2023-06-10T05:43:23;14.82;;;13.43;;
21243;SDS011;10780;50.942;4.028;2023-06-10T05:45:49;15.85;;;13.88;;
21243;SDS011;10780;50.942;4.028;2023-06-10T05:48:15;15.57;;;13.88;;
21243;SDS011;10780;50.942;4.028;2023-06-10T05:50:40;15.98;;;13.85;;
21243;SDS011;10780;50.942;4.028;2023-06-10T05:53:07;18.75;;;14.90;;
21243;SDS011;10780;50.942;4.028;2023-06-10T05:55:40;15.88;;;14.25;;
21243;SDS011;10780;50.942;4.028;2023-06-10T05:58:09;17.73;;;13.90;;
21243;SDS011;10780;50.942;4.028;2023-06-10T06:00:35;15.88;;;14.27;;
21243;SDS011;10780;50.942;4.028;2023-06-10T06:03:00;15.57;;;13.95;;
21243;SDS011;10780;50.942;4.028;2023-06-10T06:05:26;15.43;;;13.82;;
21243;SDS011;10780;50.942;4.028;2023-06-10T06:07:52;16.20;;;14.55;;
21243;SDS011;10780;50.942;4.028;2023-06-10T06:10:18;15.32;;;13.73;;
21243;SDS011;10780;50.942;4.028;2023-06-10T06:12:44;15.82;;;13.90;;
21243;SDS011;10780;50.942;4.028;2023-06-10T06:15:10;15.07;;;13.60;;
21243;SDS011;10780;50.942;4.028;2023-06-10T06:17:36;15.85;;;13.90;;
21243;SDS011;10780;50.942;4.028;2023-06-10T06:20:05;16.88;;;15.27;;
21243;SDS011;10780;50.942;4.028;2023-06-10T06:22:31;17.70;;;14.10;;
21243;SDS011;10780;50.942;4.028;2023-06-10T06:24:56;15.52;;;13.93;;
21243;SDS011;10780;50.942;4.028;2023-06-10T06:27:22;15.77;;;13.88;;
21243;SDS011;10780;50.942;4.028;2023-06-10T06:29:48;15.43;;;13.82;;
21243;SDS011;10780;50.942;4.028;2023-06-10T06:32:13;14.95;;;13.35;;
21243;SDS011;10780;50.942;4.028;2023-06-10T06:34:39;14.48;;;13.05;;
21243;SDS011;10780;50.942;4.028;2023-06-10T06:37:05;17.80;;;14.23;;
21243;SDS011;10780;50.942;4.028;2023-06-10T06:39:30;16.15;;;13.73;;
21243;SDS011;10780;50.942;4.028;2023-06-10T06:41:56;15.40;;;13.90;;
21243;SDS011;10780;50.942;4.028;2023-06-10T06:44:21;14.65;;;13.35;;
21243;SDS011;10780;50.942;4.028;2023-06-10T06:46:47;16.25;;;13.15;;
21243;SDS011;10780;50.942;4.028;2023-06-10T06:49:12;15.52;;;13.77;;
21243;SDS011;10780;50.942;4.028;2023-06-10T06:51:38;14.93;;;13.43;;
21243;SDS011;10780;50.942;4.028;2023-06-10T06:54:04;15.18;;;13.63;;
21243;SDS011;10780;50.942;4.028;2023-06-10T06:56:30;17.58;;;13.98;;
21243;SDS011;10780;50.942;4.028;2023-06-10T06:58:56;15.95;;;14.27;;
21243;SDS011;10780;50.942;4.028;2023-06-10T07:01:22;14.52;;;13.23;;
21243;SDS011;10780;50.942;4.028;2023-06-10T07:03:47;15.10;;;13.60;;
21243;SDS011;10780;50.942;4.028;2023-06-10T07:06:13;15.20;;;13.73;;
21243;SDS011;10780;50.942;4.028;2023-06-10T07:08:39;14.55;;;12.90;;
21243;SDS011;10780;50.942;4.028;2023-06-10T07:11:04;14.23;;;12.82;;
21243;SDS011;10780;50.942;4.028;2023-06-10T07:13:30;14.63;;;13.20;;
21243;SDS011;10780;50.942;4.028;2023-06-10T07:15:55;14.93;;;13.27;;
21243;SDS011;10780;50.942;4.028;2023-06-10T07:18:21;14.57;;;12.20;;
21243;SDS011;10780;50.942;4.028;2023-06-10T07:20:47;16.13;;;13.10;;
21243;SDS011;10780;50.942;4.028;2023-06-10T07:23:12;14.23;;;12.85;;
21243;SDS011;10780;50.942;4.028;2023-06-10T07:25:38;14.73;;;12.88;;
21243;SDS011;10780;50.942;4.028;2023-06-10T07:28:04;15.40;;;13.32;;
21243;SDS011;10780;50.942;4.028;2023-06-10T07:30:29;17.20;;;13.70;;
21243;SDS011;10780;50.942;4.028;2023-06-10T07:32:55;14.95;;;13.48;;
21243;SDS011;10780;50.942;4.028;2023-06-10T07:35:21;13.88;;;12.48;;
21243;SDS011;10780;50.942;4.028;2023-06-10T07:37:47;12.73;;;11.63;;
21243;SDS011;10780;50.942;4.028;2023-06-10T07:40:12;14.70;;;13.02;;
21243;SDS011;10780;50.942;4.028;2023-06-10T07:42:38;14.20;;;12.60;;
21243;SDS011;10780;50.942;4.028;2023-06-10T07:45:04;14.50;;;12.45;;
21243;SDS011;10780;50.942;4.028;2023-06-10T07:47:30;13.18;;;11.88;;
21243;SDS011;10780;50.942;4.028;2023-06-10T07:49:58;14.48;;;12.90;;
21243;SDS011;10780;50.942;4.028;2023-06-10T07:52:24;12.35;;;11.13;;
21243;SDS011;10780;50.942;4.028;2023-06-10T07:54:50;13.00;;;11.60;;
21243;SDS011;10780;50.942;4.028;2023-06-10T07:57:16;13.48;;;12.10;;
21243;SDS011;10780;50.942;4.028;2023-06-10T07:59:42;12.25;;;11.07;;
21243;SDS011;10780;50.942;4.028;2023-06-10T08:02:09;13.88;;;12.40;;
21243;SDS011;10780;50.942;4.028;2023-06-10T08:04:34;13.57;;;12.20;;
21243;SDS011;10780;50.942;4.028;2023-06-10T08:07:00;13.68;;;11.88;;
21243;SDS011;10780;50.942;4.028;2023-06-10T08:09:27;13.45;;;12.15;;
21243;SDS011;10780;50.942;4.028;2023-06-10T08:11:53;12.98;;;11.77;;
21243;SDS011;10780;50.942;4.028;2023-06-10T08:14:18;12.63;;;11.15;;
21243;SDS011;10780;50.942;4.028;2023-06-10T08:16:44;12.70;;;11.38;;
21243;SDS011;10780;50.942;4.028;2023-06-10T08:19:10;12.63;;;10.60;;
21243;SDS011;10780;50.942;4.028;2023-06-10T08:21:36;13.00;;;11.80;;
21243;SDS011;10780;50.942;4.028;2023-06-10T08:24:02;11.77;;;10.57;;
21243;SDS011;10780;50.942;4.028;2023-06-10T08:26:28;11.90;;;10.70;;
21243;SDS011;10780;50.942;4.028;2023-06-10T08:28:54;11.88;;;10.70;;
21243;SDS011;10780;50.942;4.028;2023-06-10T08:31:20;14.77;;;11.48;;
21243;SDS011;10780;50.942;4.028;2023-06-10T08:33:46;11.80;;;10.48;;
21243;SDS011;10780;50.942;4.028;2023-06-10T08:36:12;14.90;;;11.07;;
21243;SDS011;10780;50.942;4.028;2023-06-10T08:38:37;11.07;;;9.98;;
21243;SDS011;10780;50.942;4.028;2023-06-10T08:41:04;11.52;;;10.43;;
21243;SDS011;10780;50.942;4.028;2023-06-10T08:43:37;10.90;;;9.90;;
21243;SDS011;10780;50.942;4.028;2023-06-10T08:46:23;11.75;;;9.98;;
21243;SDS011;10780;50.942;4.028;2023-06-10T08:48:48;11.27;;;9.85;;
21243;SDS011;10780;50.942;4.028;2023-06-10T08:51:20;9.90;;;9.00;;
21243;SDS011;10780;50.942;4.028;2023-06-10T08:53:53;11.50;;;10.38;;
21243;SDS011;10780;50.942;4.028;2023-06-10T08:56:28;12.05;;;10.57;;
21243;SDS011;10780;50.942;4.028;2023-06-10T08:58:55;10.15;;;9.20;;
21243;SDS011;10780;50.942;4.028;2023-06-10T09:01:21;10.70;;;9.60;;
21243;SDS011;10780;50.942;4.028;2023-06-10T09:03:48;10.45;;;9.45;;
21243;SDS011;10780;50.942;4.028;2023-06-10T09:06:14;10.88;;;9.65;;
21243;SDS011;10780;50.942;4.028;2023-06-10T09:08:41;12.45;;;9.27;;
21243;SDS011;10780;50.942;4.028;2023-06-10T09:11:07;10.05;;;9.10;;
21243;SDS011;10780;50.942;4.028;2023-06-10T09:13:33;12.20;;;9.35;;
21243;SDS011;10780;50.942;4.028;2023-06-10T09:15:59;10.60;;;9.65;;
21243;SDS011;10780;50.942;4.028;2023-06-10T09:18:26;10.52;;;9.52;;
21243;SDS011;10780;50.942;4.028;2023-06-10T09:20:53;10.95;;;9.80;;
21243;SDS011;10780;50.942;4.028;2023-06-10T09:23:18;10.18;;;9.10;;
21243;SDS011;10780;50.942;4.028;2023-06-10T09:25:44;10.48;;;9.48;;
21243;SDS011;10780;50.942;4.028;2023-06-10T09:28:13;10.00;;;9.00;;
21243;SDS011;10780;50.942;4.028;2023-06-10T09:30:40;10.00;;;8.90;;
21243;SDS011;10780;50.942;4.028;2023-06-10T09:33:10;10.45;;;9.15;;
21243;SDS011;10780;50.942;4.028;2023-06-10T09:35:37;9.93;;;8.93;;
21243;SDS011;10780;50.942;4.028;2023-06-10T09:38:14;9.73;;;8.82;;
21243;SDS011;10780;50.942;4.028;2023-06-10T09:40:52;10.98;;;8.93;;
21243;SDS011;10780;50.942;4.028;2023-06-10T09:43:19;9.85;;;8.95;;
21243;SDS011;10780;50.942;4.028;2023-06-10T09:45:49;9.80;;;8.85;;
21243;SDS011;10780;50.942;4.028;2023-06-10T09:48:15;11.70;;;9.63;;
21243;SDS011;10780;50.942;4.028;2023-06-10T09:50:44;10.18;;;9.18;;
21243;SDS011;10780;50.942;4.028;2023-06-10T09:53:11;9.10;;;8.30;;
21243;SDS011;10780;50.942;4.028;2023-06-10T09:55:37;9.68;;;8.63;;
21243;SDS011;10780;50.942;4.028;2023-06-10T09:58:03;9.82;;;8.68;;
21243;SDS011;10780;50.942;4.028;2023-06-10T10:00:31;9.60;;;8.60;;
21243;SDS011;10780;50.942;4.028;2023-06-10T10:02:58;9.40;;;8.55;;
21243;SDS011;10780;50.942;4.028;2023-06-10T10:05:24;10.75;;;8.82;;
21243;SDS011;10780;50.942;4.028;2023-06-10T10:07:50;10.13;;;8.88;;
21243;SDS011;10780;50.942;4.028;2023-06-10T10:10:18;9.10;;;8.30;;
21243;SDS011;10780;50.942;4.028;2023-06-10T10:12:50;9.15;;;8.15;;
21243;SDS011;10780;50.942;4.028;2023-06-10T10:15:21;9.50;;;7.95;;
21243;SDS011;10780;50.942;4.028;2023-06-10T10:18:05;9.82;;;8.52;;
21243;SDS011;10780;50.942;4.028;2023-06-10T10:20:34;9.05;;;8.13;;
21243;SDS011;10780;50.942;4.028;2023-06-10T10:23:10;9.45;;;8.55;;
21243;SDS011;10780;50.942;4.028;2023-06-10T10:25:43;9.40;;;8.32;;
21243;SDS011;10780;50.942;4.028;2023-06-10T10:28:11;9.15;;;8.25;;
21243;SDS011;10780;50.942;4.028;2023-06-10T10:30:49;9.13;;;8.38;;
21243;SDS011;10780;50.942;4.028;2023-06-10T10:33:28;8.40;;;7.60;;
21243;SDS011;10780;50.942;4.028;2023-06-10T10:36:04;8.65;;;7.85;;
21243;SDS011;10780;50.942;4.028;2023-06-10T10:38:32;9.02;;;7.63;;
21243;SDS011;10780;50.942;4.028;2023-06-10T10:40:59;8.45;;;7.65;;
21243;SDS011;10780;50.942;4.028;2023-06-10T10:43:26;8.77;;;7.53;;
21243;SDS011;10780;50.942;4.028;2023-06-10T10:45:59;8.32;;;7.53;;
21243;SDS011;10780;50.942;4.028;2023-06-10T10:48:25;8.90;;;8.10;;
21243;SDS011;10780;50.942;4.028;2023-06-10T10:50:57;10.48;;;7.93;;
21243;SDS011;10780;50.942;4.028;2023-06-10T10:53:24;8.48;;;7.68;;
21243;SDS011;10780;50.942;4.028;2023-06-10T10:56:00;8.40;;;7.53;;
21243;SDS011;10780;50.942;4.028;2023-06-10T10:58:32;9.77;;;7.40;;
21243;SDS011;10780;50.942;4.028;2023-06-10T11:00:59;8.98;;;7.97;;
21243;SDS011;10780;50.942;4.028;2023-06-10T11:03:28;8.23;;;7.53;;
21243;SDS011;10780;50.942;4.028;2023-06-10T11:05:57;8.43;;;7.63;;
21243;SDS011;10780;50.942;4.028;2023-06-10T11:10:57;8.05;;;7.32;;
21243;SDS011;10780;50.942;4.028;2023-06-10T11:13:23;8.25;;;7.55;;
21243;SDS011;10780;50.942;4.028;2023-06-10T11:15:51;7.95;;;7.20;;
21243;SDS011;10780;50.942;4.028;2023-06-10T11:28:41;7.68;;;6.88;;
21243;SDS011;10780;50.942;4.028;2023-06-10T11:31:08;8.48;;;7.03;;
21243;SDS011;10780;50.942;4.028;2023-06-10T11:33:44;8.45;;;7.70;;
21243;SDS011;10780;50.942;4.028;2023-06-10T11:36:23;9.07;;;8.18;;
21243;SDS011;10780;50.942;4.028;2023-06-10T11:38:55;11.20;;;7.95;;
21243;SDS011;10780;50.942;4.028;2023-06-10T11:41:25;8.98;;;7.22;;
21243;SDS011;10780;50.942;4.028;2023-06-10T11:43:52;9.77;;;7.90;;
21243;SDS011;10780;50.942;4.028;2023-06-10T11:46:22;8.13;;;7.43;;
21243;SDS011;10780;50.942;4.028;2023-06-10T11:48:49;8.30;;;7.50;;
21243;SDS011;10780;50.942;4.028;2023-06-10T11:51:18;8.23;;;7.43;;
21243;SDS011;10780;50.942;4.028;2023-06-10T11:53:45;9.43;;;8.27;;
21243;SDS011;10780;50.942;4.028;2023-06-10T11:56:23;8.85;;;7.97;;
21243;SDS011;10780;50.942;4.028;2023-06-10T12:01:21;8.55;;;7.75;;
21243;SDS011;10780;50.942;4.028;2023-06-10T12:03:50;8.82;;;8.05;;
21243;SDS011;10780;50.942;4.028;2023-06-10T12:06:22;8.73;;;7.93;;
21243;SDS011;10780;50.942;4.028;2023-06-10T12:08:47;8.40;;;7.80;;
21243;SDS011;10780;50.942;4.028;2023-06-10T12:11:13;11.68;;;7.45;;
21243;SDS011;10780;50.942;4.028;2023-06-10T12:13:38;9.50;;;8.50;;
21243;SDS011;10780;50.942;4.028;2023-06-10T12:16:14;8.90;;;8.02;;
21243;SDS011;10780;50.942;4.028;2023-06-10T12:18:42;8.73;;;7.93;;
21243;SDS011;10780;50.942;4.028;2023-06-10T12:21:16;8.77;;;8.02;;
21243;SDS011;10780;50.942;4.028;2023-06-10T12:26:35;8.80;;;8.00;;
21243;SDS011;10780;50.942;4.028;2023-06-10T12:31:53;8.52;;;7.72;;
21243;SDS011;10780;50.942;4.028;2023-06-10T12:34:18;9.35;;;8.10;;
21243;SDS011;10780;50.942;4.028;2023-06-10T12:36:48;13.20;;;8.55;;
21243;SDS011;10780;50.942;4.028;2023-06-10T12:39:14;11.27;;;8.80;;
21243;SDS011;10780;50.942;4.028;2023-06-10T12:41:40;9.18;;;8.27;;
21243;SDS011;10780;50.942;4.028;2023-06-10T12:44:05;9.30;;;8.48;;
21243;SDS011;10780;50.942;4.028;2023-06-10T12:46:37;8.80;;;7.90;;
21243;SDS011;10780;50.942;4.028;2023-06-10T12:49:03;9.32;;;8.52;;
21243;SDS011;10780;50.942;4.028;2023-06-10T12:51:28;8.82;;;8.13;;
21243;SDS011;10780;50.942;4.028;2023-06-10T12:53:54;8.43;;;7.72;;
21243;SDS011;10780;50.942;4.028;2023-06-10T12:56:20;9.20;;;8.23;;
21243;SDS011;10780;50.942;4.028;2023-06-10T12:58:47;9.45;;;8.45;;
21243;SDS011;10780;50.942;4.028;2023-06-10T13:01:13;9.18;;;8.40;;
21243;SDS011;10780;50.942;4.028;2023-06-10T13:03:38;8.73;;;8.00;;
21243;SDS011;10780;50.942;4.028;2023-06-10T13:06:05;9.70;;;8.77;;
21243;SDS011;10780;50.942;4.028;2023-06-10T13:08:31;9.07;;;8.27;;
21243;SDS011;10780;50.942;4.028;2023-06-10T13:10:57;9.18;;;8.48;;
21243;SDS011;10780;50.942;4.028;2023-06-10T13:13:23;9.10;;;8.32;;
21243;SDS011;10780;50.942;4.028;2023-06-10T13:15:49;10.18;;;8.90;;
21243;SDS011;10780;50.942;4.028;2023-06-10T13:18:15;9.27;;;8.48;;
21243;SDS011;10780;50.942;4.028;2023-06-10T13:20:42;10.48;;;8.43;;
21243;SDS011;10780;50.942;4.028;2023-06-10T13:23:08;13.82;;;8.98;;
21243;SDS011;10780;50.942;4.028;2023-06-10T13:25:34;9.10;;;8.32;;
21243;SDS011;10780;50.942;4.028;2023-06-10T13:28:00;9.75;;;8.65;;
21243;SDS011;10780;50.942;4.028;2023-06-10T13:30:26;9.95;;;8.80;;
21243;SDS011;10780;50.942;4.028;2023-06-10T13:32:51;9.50;;;8.60;;
21243;SDS011;10780;50.942;4.028;2023-06-10T13:35:17;8.70;;;8.00;;
21243;SDS011;10780;50.942;4.028;2023-06-10T13:37:43;9.07;;;8.23;;
21243;SDS011;10780;50.942;4.028;2023-06-10T13:40:08;9.82;;;8.75;;
21243;SDS011;10780;50.942;4.028;2023-06-10T13:42:35;9.50;;;8.68;;
21243;SDS011;10780;50.942;4.028;2023-06-10T13:45:01;9.70;;;8.82;;
21243;SDS011;10780;50.942;4.028;2023-06-10T13:47:29;10.75;;;8.00;;
21243;SDS011;10780;50.942;4.028;2023-06-10T13:49:54;8.48;;;7.68;;
21243;SDS011;10780;50.942;4.028;2023-06-10T13:52:20;11.38;;;8.50;;
21243;SDS011;10780;50.942;4.028;2023-06-10T13:54:45;9.38;;;8.52;;
21243;SDS011;10780;50.942;4.028;2023-06-10T13:57:11;9.40;;;8.50;;
21243;SDS011;10780;50.942;4.028;2023-06-10T13:59:37;8.93;;;8.10;;
21243;SDS011;10780;50.942;4.028;2023-06-10T14:02:02;9.23;;;8.32;;
21243;SDS011;10780;50.942;4.028;2023-06-10T14:04:28;8.98;;;8.10;;
21243;SDS011;10780;50.942;4.028;2023-06-10T14:06:54;9.15;;;8.25;;
21243;SDS011;10780;50.942;4.028;2023-06-10T14:09:20;9.40;;;8.40;;
21243;SDS011;10780;50.942;4.028;2023-06-10T14:11:45;9.98;;;8.15;;
21243;SDS011;10780;50.942;4.028;2023-06-10T14:14:12;11.25;;;8.13;;
21243;SDS011;10780;50.942;4.028;2023-06-10T14:16:39;9.02;;;8.13;;
21243;SDS011;10780;50.942;4.028;2023-06-10T14:19:04;8.75;;;7.63;;
21243;SDS011;10780;50.942;4.028;2023-06-10T14:21:30;8.70;;;7.95;;
21243;SDS011;10780;50.942;4.028;2023-06-10T14:23:56;8.85;;;8.15;;
21243;SDS011;10780;50.942;4.028;2023-06-10T14:26:21;10.55;;;8.57;;
21243;SDS011;10780;50.942;4.028;2023-06-10T14:28:47;8.40;;;7.57;;
21243;SDS011;10780;50.942;4.028;2023-06-10T14:31:14;8.60;;;7.80;;
21243;SDS011;10780;50.942;4.028;2023-06-10T14:33:40;8.45;;;7.65;;
21243;SDS011;10780;50.942;4.028;2023-06-10T14:36:08;8.55;;;7.85;;
21243;SDS011;10780;50.942;4.028;2023-06-10T14:38:34;8.27;;;7.60;;
21243;SDS011;10780;50.942;4.028;2023-06-10T14:41:00;8.52;;;7.72;;
21243;SDS011;10780;50.942;4.028;2023-06-10T14:43:25;10.20;;;7.22;;
21243;SDS011;10780;50.942;4.028;2023-06-10T14:45:51;8.10;;;7.32;;
21243;SDS011;10780;50.942;4.028;2023-06-10T14:48:16;9.05;;;8.07;;
21243;SDS011;10780;50.942;4.028;2023-06-10T14:50:42;8.90;;;8.02;;
21243;SDS011;10780;50.942;4.028;2023-06-10T14:53:10;8.68;;;7.88;;